Tiempo atmosférico en la estación meteorológica de Izaña, Santa Cruz de Tenerife (2371 m.)



Fecha
DESCASC
Temp. máxima en grados centígrados (hora)
DESCASC
Temp. mínima en grados centígrados (hora)
DESCASC
Temp. media en grados centígrados
DESCASC
Racha de viento máxima en m/sg (hora)
DESCASC
Velocidad máxima media en intervalos de 10 minutos(hora)
DESCASC
Precipitaciones diarias en mm
DESCASC
Precipitaciones de 00:00 a 06:00 en mm
DESCASC
Precipitaciones de 06:00 a 12:00 en mm
DESCASC
Precipitaciones de 12:00 a 18:00 en mm
DESCASC
Precipitaciones de 18:00 a 24:00 en mm
DESCASC
04-03-2020 18.2 (13:00) 10.5 (19:30) 14.4 10.56 (13:40) 6.67 (18:20) 0 0 0 0 0
03-03-2020 17.3 (13:40) 10.1 (00:00) 13.7 12.5 (12:30) 10.28 (12:40) 0 0 0 0 0
05-03-2020 15.8 (13:10) 6.9 (00:00) 11.4 9.72 (19:50) 6.94 (19:20) 0 0 0 0 0
08-03-2020 12.5 (16:00) 6.2 (00:00) 9.3 18.61 (22:20) 16.67 (22:30) 0 0 0 0 0
07-03-2020 12.3 (13:00) 5.8 (00:00) 9.1 12.5 (23:59) 11.39 (23:59) 0 0 0 0 0
11-03-2020 12.1 (10:20) 5.8 (00:00) 9 15.28 (10:10) 10.28 (10:10) 0 0 0 0 0
06-03-2020 13.7 (11:50) 5.7 (00:00) 9.7 11.39 (21:50) 8.89 (23:59) 0 0 0 0 0
12-03-2020 12.9 (14:20) 5.4 (00:00) 9.1 12.22 (04:00) 11.11 (04:20) 0 0 0 0 0
13-03-2020 12.9 (12:30) 5.3 (03:20) 9.1 11.39 (21:20) 10.83 (21:30) 0 0 0 0 0
01-04-2020 13 (15:40) 5 (00:00) 9 -- (--) -- (--) 0 0 0 0 0
09-03-2020 11.7 (13:20) 4.7 (00:00) 8.2 18.06 (00:10) 16.11 (00:10) 0 0 0 0 0
10-03-2020 13.9 (14:50) 4.4 (00:00) 9.1 15.56 (03:00) 13.61 (00:10) 0 0 0 0 0
31-03-2020 11.6 (17:00) 4.3 (00:00) 8 -- (--) -- (--) 0 0 0 0 0
30-03-2020 12.2 (15:10) 3.8 (00:00) 8 -- (--) -- (--) 0 0 0 0 0
14-03-2020 9.9 (13:00) 2.4 (00:00) 6.1 18.61 (16:20) 15.83 (16:20) 0 0 0 0 0
17-03-2020 9.5 (14:10) 2 (00:00) 5.8 13.33 (18:10) 10 (18:10) 0 0 0 0 0
29-03-2020 9.4 (15:00) 2 (00:00) 5.7 -- (--) -- (--) 0 0 0 0 0
21-03-2020 9 (13:40) -0.6 (-00:0) 4.2 14.72 (18:00) 12.78 (18:30) 0 0 0 0 0
20-03-2020 6.8 (15:10) -0.6 (-00:0) 3.1 14.44 (09:30) 11.67 (09:30) 0 0 0 0 0
27-03-2020 2.8 (13:10) -0.7 (-00:0) 1 -- (--) -- (--) 11.4 0.2 0 0.2 11
19-03-2020 3.7 (14:00) -0.9 (-00:0) 1.4 25.56 (03:30) 20.83 (03:30) 0.6 0 0 0.4 0.2
16-03-2020 6 (14:50) -1.2 (-00:0) 2.4 14.44 (20:50) 10.83 (02:00) 0 0 0 0 0
25-03-2020 6.2 (10:10) -1.2 (-00:0) 2.5 -- (--) -- (--) 0.2 0 0 0 0.2
15-03-2020 4.5 (02:30) -1.6 (-00:0) 1.4 13.61 (12:40) 10.56 (12:40) 0 0 0 0 0
24-03-2020 1.3 (14:20) -1.7 (-00:0) -0.2 -- (--) -- (--) 0.8 0.4 0.2 0.2 0
22-03-2020 3.4 (12:20) -2 (06:30) 0.7 -- (--) -- (--) 14.6 0 0 10.4 4.2
23-03-2020 -0.2 (14:20) -2.3 (-00:0) -1.2 -- (--) -- (--) 33.4 11.4 14.8 7 0.2
26-03-2020 2.6 (12:30) -2.3 (-00:0) 0.1 -- (--) -- (--) 0 0 0 0 0
18-03-2020 4.8 (14:50) -2.6 (-00:0) 1.1 23.89 (18:20) 18.89 (22:30) 0 0 0 0 0
28-03-2020 8.3 (15:00) -2.9 (-00:0) 2.7 -- (--) -- (--) 0 0 0 0 0

Gráficas

Temp. máximas Temp. mínimas Temp. medias Precipitaciones Rachas de viento máximas Velocidades máximas media en intervalos de 10 minutos

Datos horarios

Fecha y hora oficial Temperatura (ºC) Velocidad del viento (km/h) Dirección del viento Racha (km/h) Dirección de racha Precipitación (mm) Presión (hPa) Tendencia (hPa) Humedad (%)
2020-04-01 23:00:00 6 -- -- -- -- 0 767.9 1.2 16
2020-04-01 22:00:00 6.7 -- -- -- -- 0 767.8 1.1 12
2020-04-01 21:00:00 6.4 -- -- -- -- 0 767.2 0.6 17
2020-04-01 20:00:00 8.2 -- -- -- -- 0 766.7 -0.1 40
2020-04-01 19:00:00 9.5 -- -- -- -- 0 766.7 -0.3 66
2020-04-01 18:00:00 10.3 -- -- -- -- 0 766.6 -0.6 66
2020-04-01 17:00:00 11.1 -- -- -- -- 0 766.8 -0.7 65
2020-04-01 16:00:00 12.5 -- -- -- -- 0 767 -0.7 63
2020-04-01 15:00:00 11.9 -- -- -- -- 0 767.2 -0.8 46
2020-04-01 14:00:00 11.5 -- -- -- -- 0 767.5 -0.2 49
2020-04-01 13:00:00 11.7 -- -- -- -- 0 767.7 0.4 48
2020-04-01 12:00:00 11 -- -- -- -- 0 768 1.2 45
2020-04-01 11:00:00 9 -- -- -- -- 0 767.7 1 31
2020-04-01 10:00:00 9.1 -- -- -- -- 0 767.3 0.9 36
2020-04-01 09:00:00 6.7 -- -- -- -- 0 766.8 0.6 24
2020-04-01 08:00:00 6.8 -- -- -- -- 0 766.7 0.6 17
2020-04-01 07:00:00 7.1 -- -- -- -- 0 766.4 0.5 14
2020-04-01 06:00:00 7.2 -- -- -- -- 0 766.2 0.2 15
2020-04-01 05:00:00 6 -- -- -- -- 0 766.1 -0.3 24
2020-04-01 04:00:00 5.5 -- -- -- -- 0 765.9 -0.5 32
2020-04-01 03:00:00 5.5 -- -- -- -- 0 766 -0.5 32
2020-04-01 02:00:00 5.6 -- -- -- -- 0 766.4 0 31
2020-04-01 01:00:00 5.6 -- -- -- -- 0 766.4 0.9 33
2020-04-01 00:00:00 5.6 -- -- -- -- 0 766.5 1.4 34
2020-03-31 23:00:00 5.2 -- -- -- -- 0 766.4 1.3 40
2020-03-31 22:00:00 5.3 -- -- -- -- 0 765.5 0.6 42
2020-03-31 21:00:00 5.8 -- -- -- -- 0 765.1 0 41
2020-03-31 20:00:00 7.1 -- -- -- -- 0 765.1 0 47
2020-03-31 19:00:00 8.8 -- -- -- -- 0 764.9 -0.1 44
2020-03-31 18:00:00 10.5 -- -- -- -- 0 765.1 -0.1 47
2020-03-31 17:00:00 11.6 -- -- -- -- 0 765.1 0 47
2020-03-31 16:00:00 11 -- -- -- -- 0 765 -0.4 53
2020-03-31 15:00:00 10.5 -- -- -- -- 0 765.2 -0.1 57
2020-03-31 14:00:00 10.5 -- -- -- -- 0 765.1 0 50
2020-03-31 13:00:00 9.9 -- -- -- -- 0 765.4 1.1 52
2020-03-31 12:00:00 9.7 -- -- -- -- 0 765.3 1.7 45
2020-03-31 11:00:00 8.6 -- -- -- -- 0 765.1 1.8 44
2020-03-31 10:00:00 6.9 -- -- -- -- 0 764.3 1.1 46
2020-03-31 09:00:00 5.4 -- -- -- -- 0 763.6 0.5 49
2020-03-31 08:00:00 4.7 -- -- -- -- 0 763.3 0.4 48
2020-03-31 07:00:00 4.6 -- -- -- -- 0 763.2 -0.4 51
2020-03-31 06:00:00 4.6 -- -- -- -- 0 763.1 -0.7 51
2020-03-31 05:00:00 4.5 -- -- -- -- 0 762.9 -1.3 53
2020-03-31 04:00:00 4.9 -- -- -- -- 0 763.6 -0.9 46
2020-03-31 03:00:00 4.9 -- -- -- -- 0 763.8 -0.8 48
2020-03-31 02:00:00 5.9 -- -- -- -- 0 764.2 -0.7 43
2020-03-31 01:00:00 5.3 -- -- -- -- 0 764.5 -0.3 49
2020-03-31 00:00:00 5.3 -- -- -- -- 0 764.6 0.1 50
2020-03-30 23:00:00 5.3 -- -- -- -- 0 764.9 0.5 52
2020-03-30 22:00:00 5.2 -- -- -- -- 0 764.8 0.4 56
2020-03-30 21:00:00 5.6 -- -- -- -- 0 764.5 0.1 53
2020-03-30 20:00:00 7.3 -- -- -- -- 0 764.4 0 62
2020-03-30 19:00:00 9.4 -- -- -- -- 0 764.4 -0.5 45
2020-03-30 18:00:00 10.4 -- -- -- -- 0 764.4 -1.5 57
2020-03-30 17:00:00 10.9 -- -- -- -- 0 764.4 -2 46
2020-03-30 16:00:00 10.8 -- -- -- -- 0 764.9 -1.7 59
2020-03-30 15:00:00 12.1 -- -- -- -- 0 765.9 -1 46
2020-03-30 14:00:00 11.5 -- -- -- -- 0 766.4 -0.4 48
2020-03-30 13:00:00 11.2 -- -- -- -- 0 766.6 0.3 53
2020-03-30 12:00:00 10.8 -- -- -- -- 0 766.9 1.1 46
2020-03-30 11:00:00 9.5 -- -- -- -- 0 766.8 1.2 42
2020-03-30 10:00:00 7.3 -- -- -- -- 0 766.3 1.1 41
2020-03-30 09:00:00 5.8 -- -- -- -- 0 765.8 0.5 38
2020-03-30 08:00:00 5.7 -- -- -- -- 0 765.6 0.1 39
2020-03-30 07:00:00 5.9 -- -- -- -- 0 765.2 -0.7 39
2020-03-30 06:00:00 5.3 -- -- -- -- 0 765.3 -1.3 44
2020-03-30 05:00:00 5.2 -- -- -- -- 0 765.5 -1.6 51
2020-03-30 04:00:00 4.7 -- -- -- -- 0 765.9 -1.7 56
2020-03-30 03:00:00 3.8 -- -- -- -- 0 766.6 -1.2 70
2020-03-30 02:00:00 4.1 -- -- -- -- 0 767.1 -0.7 61
2020-03-30 01:00:00 4.4 -- -- -- -- 0 767.6 0.1 59
2020-03-30 00:00:00 4.6 -- -- -- -- 0 767.8 0.9 59
2020-03-29 23:00:00 4.8 -- -- -- -- 0 767.8 0.7 59
2020-03-29 22:00:00 4.9 -- -- -- -- 0 767.5 0.4 66
2020-03-29 21:00:00 5.2 -- -- -- -- 0 766.9 -0.1 68
2020-03-29 20:00:00 6.2 -- -- -- -- 0 767.1 0.1 68
2020-03-29 19:00:00 7.7 -- -- -- -- 0 767.1 -0.2 63
2020-03-29 18:00:00 8.7 -- -- -- -- 0 767 -0.8 61
2020-03-29 17:00:00 9.2 -- -- -- -- 0 767 -1.1 58
2020-03-29 16:00:00 9.3 -- -- -- -- 0 767.3 -0.7 52
2020-03-29 15:00:00 9.4 -- -- -- -- 0 767.8 0 50
2020-03-29 14:00:00 8.8 -- -- -- -- 0 768.1 0.4 50
2020-03-29 13:00:00 8.1 -- -- -- -- 0 768 0.8 34
2020-03-29 12:00:00 7.1 -- -- -- -- 0 767.8 1 31
2020-03-29 11:00:00 6.2 -- -- -- -- 0 767.7 1.3 37
2020-03-29 10:00:00 4 -- -- -- -- 0 767.2 1.3 47
2020-03-29 09:00:00 2.6 -- -- -- -- 0 766.8 1 50
2020-03-29 08:00:00 2.1 -- -- -- -- 0 766.4 0.6 32
2020-03-29 07:00:00 2.5 -- -- -- -- 0 765.9 -0.5 49
2020-03-29 06:00:00 2.5 -- -- -- -- 0 765.8 -1.1 13
2020-03-29 05:00:00 2.9 -- -- -- -- 0 765.8 -1.5 14
2020-03-29 04:00:00 3.2 -- -- -- -- 0 766.4 -1 11
2020-03-29 00:00:00 3.2 -- -- -- -- 0 767.4 0.3 11
2020-03-28 23:00:00 3.5 -- -- -- -- 0 767.4 0.9 10
2020-03-28 22:00:00 3.7 -- -- -- -- 0 767.4 1 10
2020-03-28 21:00:00 3.5 -- -- -- -- 0 767.1 0.9 11
2020-03-28 20:00:00 3.5 -- -- -- -- 0 766.5 0.7 23
2020-03-28 19:00:00 5.5 -- -- -- -- 0 766.4 0.8 30
2020-03-28 18:00:00 6.9 -- -- -- -- 0 766.2 0.7 57
2020-03-28 17:00:00 7.9 -- -- -- -- 0 765.8 0.2 39
2020-03-28 16:00:00 7.5 -- -- -- -- 0 765.6 -0.3 48
2020-03-28 15:00:00 8.2 -- -- -- -- 0 765.5 -0.3 73
2020-03-28 14:00:00 6.5 -- -- -- -- 0 765.6 -0.2 84
2020-03-28 13:00:00 7.5 -- -- -- -- 0 765.9 0.3 68
2020-03-28 12:00:00 6 -- -- -- -- 0 765.8 0.9 65
2020-03-28 11:00:00 3.6 -- -- -- -- 0 765.8 1.9 94
2020-03-28 10:00:00 2.3 -- -- -- -- 0 765.6 2.2 99
2020-03-28 09:00:00 0.7 -- -- -- -- 0 764.9 2.1 100
2020-03-28 08:00:00 0 -- -- -- -- 0 763.9 0.9 100
2020-03-28 07:00:00 -0.3 -- -- -- -- 0 763.4 0.6 100
2020-03-28 06:00:00 -1.5 -- -- -- -- 0 762.8 0.1 100
2020-03-28 05:00:00 -1.9 -- -- -- -- 0 763 0 100
2020-03-28 04:00:00 -2.6 -- -- -- -- 0 762.8 -0.2 99
2020-03-28 03:00:00 -1.3 -- -- -- -- 0 762.7 -0.3 100
2020-03-28 02:00:00 -0.8 -- -- -- -- 0 763 0.2 100
2020-03-28 01:00:00 -0.3 -- -- -- -- 0 763 0 100
2020-03-28 00:00:00 -0.2 -- -- -- -- 1.8 763 0.3 100
2020-03-27 23:00:00 0 -- -- -- -- 3.8 762.8 0.6 100
2020-03-27 22:00:00 0.7 -- -- -- -- 1.6 763 0.7 100
2020-03-27 21:00:00 0.9 -- -- -- -- 1.6 762.7 0.7 100
2020-03-27 20:00:00 0.7 -- -- -- -- 1.2 762.2 0.3 100
2020-03-27 19:00:00 1.4 -- -- -- -- 1 762.3 0.2 100
2020-03-27 18:00:00 1.8 -- -- -- -- 0 762 -0.1 100
2020-03-27 17:00:00 1.9 -- -- -- -- 0.2 761.9 -0.4 100
2020-03-27 16:00:00 1.8 -- -- -- -- 0 762.1 -0.5 100
2020-03-27 15:00:00 2 -- -- -- -- 0 762.1 -0.8 100
2020-03-27 14:00:00 2.5 -- -- -- -- 0 762.3 -0.8 99
2020-03-27 13:00:00 2.4 -- -- -- -- 0 762.6 -0.3 100
2020-03-27 12:00:00 1.9 -- -- -- -- 0 762.9 0.8 99
2020-03-27 11:00:00 1.1 -- -- -- -- 0 763.1 1.6 100
2020-03-27 10:00:00 1 -- -- -- -- 0 762.9 1.8 100
2020-03-27 09:00:00 -0.1 -- -- -- -- 0 762.1 1 100
2020-03-27 08:00:00 0.4 -- -- -- -- 0 761.5 0.6 100
2020-03-27 07:00:00 0.5 -- -- -- -- 0 761.1 0 100
2020-03-27 06:00:00 0.6 -- -- -- -- 0 761.1 -0.3 100
2020-03-27 05:00:00 0.5 -- -- -- -- 0.2 760.9 -1 100
2020-03-27 04:00:00 0.4 -- -- -- -- 0 761.1 -1.2 100
2020-03-27 03:00:00 0 -- -- -- -- 0 761.4 -1.4 100
2020-03-27 02:00:00 0 -- -- -- -- 0 761.9 -0.9 100
2020-03-27 01:00:00 -0.2 -- -- -- -- 0 762.3 -0.4 100
2020-03-27 00:00:00 -0.7 -- -- -- -- 0 762.8 0.2 99
2020-03-26 23:00:00 -1.2 -- -- -- -- 0 762.8 0.6 85
2020-03-26 22:00:00 -1.1 -- -- -- -- 0 762.7 0.5 81
2020-03-26 21:00:00 -0.9 -- -- -- -- 0 762.6 0.3 100
2020-03-26 20:00:00 -0.6 -- -- -- -- 0 762.2 -0.1 100
2020-03-26 19:00:00 0 -- -- -- -- 0 762.2 -0.3 100
2020-03-26 18:00:00 0.5 -- -- -- -- 0 762.3 -0.6 100
2020-03-26 17:00:00 0.6 -- -- -- -- 0 762.3 -0.9 100
2020-03-26 16:00:00 1.6 -- -- -- -- 0 762.5 -1.1 99
2020-03-26 15:00:00 2.2 -- -- -- -- 0 762.9 -1.1 97
2020-03-26 14:00:00 1.8 -- -- -- -- 0 763.2 -0.9 96
2020-03-26 13:00:00 2.3 -- -- -- -- 0 763.6 -0.2 90
2020-03-26 12:00:00 2.3 -- -- -- -- 0 764 0.8 88
2020-03-26 11:00:00 1.1 -- -- -- -- 0 764.1 1.3 96
2020-03-26 10:00:00 0.5 -- -- -- -- 0 763.8 1.1 95
2020-03-26 09:00:00 -0.4 -- -- -- -- 0 763.2 0.8 97
2020-03-26 08:00:00 -1.4 -- -- -- -- 0 762.8 0.5 99
2020-03-26 07:00:00 -2.2 -- -- -- -- 0 762.7 0.2 95
2020-03-26 06:00:00 -2.2 -- -- -- -- 0 762.4 -0.5 94
2020-03-26 05:00:00 -1.9 -- -- -- -- 0 762.3 -1.2 93
2020-03-26 04:00:00 -1.7 -- -- -- -- 0 762.5 -1.5 94
2020-03-26 03:00:00 -0.9 -- -- -- -- 0 762.9 -1.5 83
2020-03-26 02:00:00 -1.9 -- -- -- -- 0 763.5 -1.1 98
2020-03-26 01:00:00 -1.1 -- -- -- -- 0 764 -0.7 99
2020-03-26 00:00:00 -1 -- -- -- -- 0 764.4 0 99
2020-03-25 23:00:00 -0.8 -- -- -- -- 0 764.6 0.4 97
2020-03-25 22:00:00 1.6 -- -- -- -- 0 764.7 0.7 54
2020-03-25 21:00:00 0.5 -- -- -- -- 0 764.4 0.2 85
2020-03-25 20:00:00 0.5 -- -- -- -- 0 764.2 -0.2 98
2020-03-25 19:00:00 1.5 -- -- -- -- 0.2 764 -0.6 96
2020-03-25 18:00:00 2.8 -- -- -- -- 0 764.2 -0.7 97
2020-03-25 17:00:00 3.4 -- -- -- -- 0 764.4 -0.8 95
2020-03-25 16:00:00 3.8 -- -- -- -- 0 764.6 -0.9 94
2020-03-25 15:00:00 4.7 -- -- -- -- 0 764.9 -0.7 90
2020-03-25 14:00:00 4.9 -- -- -- -- 0 765.2 -0.5 89
2020-03-25 13:00:00 4 -- -- -- -- 0 765.5 0.2 90
2020-03-25 12:00:00 4.8 -- -- -- -- 0 765.6 0.7 86
2020-03-25 11:00:00 5.1 -- -- -- -- 0 765.7 1.3 75
2020-03-25 10:00:00 6 -- -- -- -- 0 765.3 1.1 24
2020-03-25 09:00:00 4.1 -- -- -- -- 0 764.9 1.1 33
2020-03-25 08:00:00 1 -- -- -- -- 0 764.4 0.8 78
2020-03-25 07:00:00 2.4 -- -- -- -- 0 764.2 0.4 24
2020-03-25 06:00:00 1.6 -- -- -- -- 0 763.8 -0.1 43
2020-03-25 05:00:00 2.4 -- -- -- -- 0 763.6 -0.7 27
2020-03-25 04:00:00 1.6 -- -- -- -- 0 763.8 -0.8 29
2020-03-25 03:00:00 0.2 -- -- -- -- 0 763.9 -1.1 45
2020-03-25 02:00:00 1.3 -- -- -- -- 0 764.3 -0.8 43
2020-03-25 01:00:00 0.2 -- -- -- -- 0 764.6 -0.5 73
2020-03-25 00:00:00 -1.2 -- -- -- -- 0 765 0.2 96
2020-03-24 23:00:00 -1.4 -- -- -- -- 0 765.1 0.8 100
2020-03-24 22:00:00 -1.4 -- -- -- -- 0 765.1 1 100
2020-03-24 21:00:00 -1 -- -- -- -- 0 764.8 0.4 100
2020-03-24 20:00:00 -0.6 -- -- -- -- 0 764.3 0 100
2020-03-24 19:00:00 -0.3 -- -- -- -- 0 764.1 -0.4 100
2020-03-24 18:00:00 0.5 -- -- -- -- 0 764.4 -0.2 100
2020-03-24 17:00:00 0.8 -- -- -- -- 0 764.3 -0.4 100
2020-03-24 16:00:00 1.1 -- -- -- -- 0 764.5 -0.3 100
2020-03-24 15:00:00 1.2 -- -- -- -- 0 764.6 -0.5 100
2020-03-24 14:00:00 1.1 -- -- -- -- 0.2 764.7 -0.6 100
2020-03-24 13:00:00 0.9 -- -- -- -- 0 764.8 0 100
2020-03-24 12:00:00 0.2 -- -- -- -- 0 765.1 1.2 100
2020-03-24 11:00:00 -0.2 -- -- -- -- 0 765.3 1.8 100
2020-03-24 10:00:00 -0.5 -- -- -- -- 0 764.8 1.9 100
2020-03-24 09:00:00 -0.3 -- -- -- -- 0.2 763.9 1.1 100
2020-03-24 08:00:00 -0.6 -- -- -- -- 0 763.5 0.9 100
2020-03-24 07:00:00 -1 -- -- -- -- 0 762.9 0.2 100
2020-03-24 06:00:00 -0.7 -- -- -- -- 0 762.8 0.1 100
2020-03-24 05:00:00 -0.6 -- -- -- -- 0 762.6 0 100
2020-03-24 04:00:00 -0.4 -- -- -- -- 0 762.7 -0.2 100
2020-03-24 03:00:00 -0.3 -- -- -- -- 0.2 762.7 0.3 100
2020-03-24 02:00:00 -0.2 -- -- -- -- 0 762.6 0.4 100
2020-03-24 01:00:00 -0.3 -- -- -- -- 0.2 762.9 0.8 100
2020-03-24 00:00:00 -0.3 -- -- -- -- 0 762.4 1.5 100
2020-03-23 23:00:00 -0.4 -- -- -- -- 0 762.2 1.6 100
2020-03-23 22:00:00 -0.7 -- -- -- -- 0 762.1 2 100
2020-03-23 21:00:00 -0.4 -- -- -- -- 0.2 760.9 0.7 100
2020-03-23 20:00:00 -0.5 -- -- -- -- 0 760.6 1.2 100
2020-03-23 19:00:00 -0.9 -- -- -- -- 0 760.1 1.5 100
2020-03-23 18:00:00 -0.6 -- -- -- -- 0.4 760.2 1.4 100
2020-03-23 17:00:00 -0.3 -- -- -- -- 1.4 759.4 -0.2 100
2020-03-23 16:00:00 -0.4 -- -- -- -- 1.8 758.6 -1.2 100
2020-03-23 15:00:00 -0.3 -- -- -- -- 2.2 758.8 0.4 100
2020-03-23 14:00:00 -0.4 -- -- -- -- 0.6 759.6 1.6 100
2020-03-23 13:00:00 -0.6 -- -- -- -- 0.6 759.8 3.5 100
2020-03-23 12:00:00 -1 -- -- -- -- 1.8 758.4 3.4 100
2020-03-23 11:00:00 -1.5 -- -- -- -- 1.4 758 3.9 100
2020-03-23 10:00:00 -0.8 -- -- -- -- 2.8 756.3 2.2 100
2020-03-23 09:00:00 -1.1 -- -- -- -- 3.8 755 1.6 100
2020-03-23 08:00:00 -1.4 -- -- -- -- 2.8 754.1 2.4 99
2020-03-23 07:00:00 -1.8 -- -- -- -- 2.2 754.1 3 99
2020-03-23 06:00:00 -1.4 -- -- -- -- 4.2 753.4 -0.2 99
2020-03-23 05:00:00 -1.7 -- -- -- -- 0.2 751.7 -1.9 99
2020-03-23 04:00:00 -2.1 -- -- -- -- 0.8 751.1 -4.6 99
2020-03-23 03:00:00 -1.9 -- -- -- -- 1.2 753.6 -1.1 99
2020-03-23 02:00:00 -2 -- -- -- -- 1.6 753.6 -1.7 99
2020-03-23 01:00:00 -1 -- -- -- -- 3.4 755.7 -0.2 100
2020-03-23 00:00:00 -1 -- -- -- -- 1.2 754.7 -- 100
2020-03-22 23:00:00 -1 -- -- -- -- 0 755.3 -1.8 100
2020-03-22 22:00:00 -1.1 -- -- 163 Norte 0.2 755.9 -1.9 100
2020-03-22 21:00:00 -0.7 99 Norte 123 Noroeste 1 -- -- 100
2020-03-22 20:00:00 -1.2 92 Noroeste 117 Noroeste 0.2 757.1 -2.8 100
2020-03-22 19:00:00 -1.5 94 Noroeste 110 Noroeste 1.6 757.8 -3 99
2020-03-22 18:00:00 0 67 Norte 98 Noroeste 4.4 759.6 -1.5 99
2020-03-22 17:00:00 0.8 69 Norte 90 Noroeste 5.6 759.9 -1.8 99
2020-03-22 16:00:00 1.6 59 Norte 81 Norte 0.4 760.8 -1.6 99
2020-03-22 15:00:00 1.6 58 Norte 81 Norte 0 761.1 -2.1 97
2020-03-22 14:00:00 1.7 59 Noroeste 79 Noroeste 0 761.7 -2.4 89
2020-03-22 13:00:00 2.8 62 Noroeste 82 Noroeste 0 762.4 -1.8 82
2020-03-22 12:00:00 2.9 60 Noroeste 72 Noroeste 0 763.2 -0.5 79
2020-03-22 11:00:00 2.7 45 Noroeste 55 Noroeste 0 764.1 0.3 76
2020-03-22 10:00:00 0.3 41 Noroeste 55 Noroeste 0 764.2 1.1 99
2020-03-22 09:00:00 0.2 48 Noroeste 55 Noroeste 0 763.7 0.5 99
2020-03-22 08:00:00 -0.4 37 Noroeste 57 Noroeste 0 763.8 0.2 99
2020-03-22 07:00:00 -1.7 48 Noroeste 55 Noroeste 0 763.1 -1.3 95
2020-03-22 06:00:00 -1.8 47 Noroeste 59 Noroeste 0 763.2 -2 95
2020-03-22 05:00:00 -1.6 41 Noroeste 47 Noroeste 0 763.6 -2.3 91
2020-03-22 04:00:00 0.1 40 Noroeste 49 Noroeste 0 764.4 -1.8 69
2020-03-22 03:00:00 0.5 34 Noroeste 40 Noroeste 0 765.2 -1.2 58
2020-03-22 02:00:00 1.7 36 Noroeste 42 Noroeste 0 765.9 -0.7 40
2020-03-22 01:00:00 1.1 34 Noroeste 46 Noroeste 0 766.2 -0.5 9
2020-03-22 00:00:00 1.3 40 Noroeste 46 Noroeste 0 766.4 -0.2 19
2020-03-21 23:00:00 1.4 39 Noroeste 45 Noroeste 0 766.6 0.4 16
2020-03-21 22:00:00 0.9 39 Noroeste 45 Noroeste 0 766.7 0.7 28
2020-03-21 21:00:00 0.9 37 Noroeste 52 Noroeste 0 766.6 0.6 36
2020-03-21 20:00:00 2 42 Noroeste 49 Noroeste 0 766.2 0.1 13
2020-03-21 19:00:00 3.7 44 Noroeste 51 Noroeste 0 766 -0.4 23
2020-03-21 18:00:00 5.1 45 Noroeste 53 Noroeste 0 766 -1.1 15
2020-03-21 17:00:00 6.4 42 Noroeste 48 Noroeste 0 766.1 -1.5 19
2020-03-21 16:00:00 8.2 40 Noroeste 48 Noroeste 0 766.4 -1.6 12
2020-03-21 15:00:00 8.6 30 Noroeste 40 Noroeste 0 767.1 -1.5 27
2020-03-21 14:00:00 8.3 28 Noroeste 39 Noroeste 0 767.6 -1.1 16
2020-03-21 13:00:00 8.2 34 Noroeste 41 Noroeste 0 768 -0.5 7
2020-03-21 12:00:00 8.1 30 Noroeste 39 Noroeste 0 768.6 0.3 4
2020-03-21 11:00:00 7.6 29 Noroeste 33 Noroeste 0 768.7 1 9
2020-03-21 10:00:00 6.5 23 Noroeste 27 Norte 0 768.5 1 3
2020-03-21 09:00:00 5.3 18 Noroeste 26 Noroeste 0 768.3 1 2
2020-03-21 08:00:00 4.2 18 Noroeste 20 Noroeste 0 767.7 0.4 --
2020-03-21 07:00:00 3.8 13 Norte 20 Norte 0 767.5 0.1 --
2020-03-21 06:00:00 3.2 14 Norte 19 Norte 0 767.3 -0.4 --
2020-03-21 05:00:00 3.4 14 Norte 21 Noroeste 0 767.3 -0.9 --
2020-03-21 04:00:00 3.4 17 Noroeste 24 Noroeste 0 767.4 -1.3 --
2020-03-21 03:00:00 3.1 20 Noroeste 27 Noroeste 0 767.7 -1.2 --
2020-03-21 02:00:00 2.7 22 Noroeste 27 Noroeste 0 768.2 -0.8 --
2020-03-21 01:00:00 2.9 22 Noroeste 27 Noroeste 0 768.7 -0.4 4
2020-03-21 00:00:00 3.1 23 Noroeste 31 Norte 0 768.9 0.2 5
2020-03-20 23:00:00 3.6 24 Norte 36 Norte 0 769 0.9 8
2020-03-20 22:00:00 3 24 Noroeste 30 Noroeste 0 769.1 1.2 3
2020-03-20 21:00:00 3 25 Noroeste 33 Noroeste 0 768.7 1.1 8
2020-03-20 20:00:00 3.1 26 Noroeste 37 Norte 0 768.1 0.6 13
2020-03-20 19:00:00 4.1 27 Norte 35 Norte 0 767.9 0.3 28
2020-03-20 18:00:00 4.4 21 Noroeste 33 Norte 0 767.6 -0.2 47
2020-03-20 17:00:00 4.6 18 Norte 30 Norte 0 767.5 -0.6 76
2020-03-20 16:00:00 5.8 23 Noroeste 36 Noroeste 0 767.6 -0.6 50
2020-03-20 15:00:00 6.6 27 Noroeste 34 Noroeste 0 767.8 -0.7 60
2020-03-20 14:00:00 5.6 25 Noroeste 37 Noroeste 0 768.1 -0.1 65
2020-03-20 13:00:00 5.6 32 Noroeste 44 Norte 0 768.2 0.3 61
2020-03-20 12:00:00 4.9 32 Noroeste 43 Noroeste 0 768.5 1.2 34
2020-03-20 11:00:00 4.2 35 Noroeste 46 Noroeste 0 768.2 1.5 57
2020-03-20 10:00:00 2.6 39 Noroeste 52 Norte 0 767.9 1.6 68
2020-03-20 09:00:00 0.5 33 Noroeste 39 Noroeste 0 767.3 1 100
2020-03-20 08:00:00 0.5 34 Noroeste 41 Noroeste 0 766.7 0.5 84
2020-03-20 07:00:00 0.5 37 Noroeste 41 Noroeste 0 766.3 0.1 82
2020-03-20 06:00:00 0.5 30 Noroeste 47 Norte 0 766.3 -0.5 81
2020-03-20 05:00:00 0.6 35 Noroeste 41 Noroeste 0 766.2 -1 82
2020-03-20 04:00:00 0.4 35 Noroeste 42 Noroeste 0 766.2 -1.1 87
2020-03-20 03:00:00 0.1 34 Noroeste 49 Norte 0 766.8 -0.7 99
2020-03-20 02:00:00 -0.1 31 Noroeste 46 Norte 0 767.2 -0.4 98
2020-03-20 01:00:00 0 29 Norte 50 Norte 0 767.3 -0.2 100
2020-03-20 00:00:00 0.6 40 Norte 54 Noroeste 0 767.5 0.1 100
2020-03-19 23:00:00 1 42 Noroeste 61 Norte 0 767.6 1 100
2020-03-19 22:00:00 0.8 44 Norte 64 Norte 0 767.5 0.7 100
2020-03-19 21:00:00 0.6 38 Norte 62 Norte 0 767.4 0.8 100
2020-03-19 20:00:00 0.3 48 Norte 61 Norte 0.2 766.6 0.5 100
2020-03-19 19:00:00 0.3 37 Norte 63 Norte 0 766.8 1.1 100
2020-03-19 18:00:00 1.8 47 Norte 71 Norte 0 766.6 0.2 100
2020-03-19 17:00:00 1.7 46 Noroeste 73 Norte 0 766.1 -0.6 100
2020-03-19 16:00:00 2.4 58 Norte 73 Norte 0.2 765.7 -1 100
2020-03-19 15:00:00 2.6 45 Norte 65 Norte 0 766.4 -0.7 100
2020-03-19 14:00:00 3.7 45 Norte 75 Norte 0.2 766.7 -0.4 100
2020-03-19 13:00:00 3.2 48 Norte 68 Norte 0 766.7 0.1 100
2020-03-19 12:00:00 2.9 48 Norte 66 Norte 0 767.1 1.4 100
2020-03-19 11:00:00 2.4 45 Norte 63 Norte 0 767.1 2 100
2020-03-19 10:00:00 2 49 Norte 73 Norte 0 766.6 1.8 100
2020-03-19 09:00:00 1.8 57 Norte 80 Norte 0 765.7 1.4 100
2020-03-19 08:00:00 0.4 57 Norte 69 Norte 0 765.1 1 100
2020-03-19 07:00:00 -0.2 50 Norte 71 Norte 0 764.8 1.4 100
2020-03-19 06:00:00 0 61 Norte 76 Noroeste 0 764.3 0.3 100
2020-03-19 05:00:00 -0.1 64 Norte 84 Norte 0 764.1 -0.2 100
2020-03-19 04:00:00 -0.2 72 Noroeste 92 Noroeste 0 763.4 -1.1 100
2020-03-19 03:00:00 -0.5 69 Norte 86 Norte 0 764 -0.8 100
2020-03-19 02:00:00 -0.7 66 Norte 83 Noroeste 0 764.3 -0.3 100
2020-03-19 01:00:00 -0.4 64 Norte 85 Noroeste 0 764.5 -0.2 100
2020-03-19 00:00:00 -0.9 60 Noroeste 80 Noroeste 0 764.8 0 99
2020-03-18 23:00:00 -0.5 63 Noroeste 85 Norte 0 764.6 -0.3 99
2020-03-18 22:00:00 -0.5 62 Norte 79 Norte 0 764.7 0.4 99
2020-03-18 21:00:00 -2 55 Noroeste 70 Noroeste 0 764.8 0.9 98
2020-03-18 20:00:00 -1.7 50 Norte 78 Norte 0 764.9 0.7 98
2020-03-18 19:00:00 -0.9 59 Norte 86 Noroeste 0 764.3 -0.4 99
2020-03-18 18:00:00 -0.7 62 Noroeste 82 Norte 0 763.9 -1.5 98
2020-03-18 17:00:00 0.3 55 Norte 79 Norte 0 764.2 -1.3 96
2020-03-18 16:00:00 2.1 48 Norte 57 Norte 0 764.7 -1.5 74
2020-03-18 15:00:00 4.5 42 Norte 60 Norte 0 765.4 -1.1 53
2020-03-18 14:00:00 4 36 Noroeste 53 Noroeste 0 765.5 -1.1 69
2020-03-18 13:00:00 3.5 31 Norte 62 Norte 0 766.2 -0.6 66
2020-03-18 12:00:00 2.8 35 Norte 50 Norte 0 766.5 0 77
2020-03-18 11:00:00 4 31 Noroeste 37 Noroeste 0 766.6 0.4 46
2020-03-18 10:00:00 3.5 23 Norte 43 Norte 0 766.8 1.1 45
2020-03-18 09:00:00 3 26 Norte 45 Norte 0 766.5 0.8 16
2020-03-18 08:00:00 1.6 29 Norte 48 Norte 0 766.2 0.5 48
2020-03-18 07:00:00 1.3 32 Norte 52 Norte 0 765.7 0.2 36
2020-03-18 06:00:00 0.4 32 Norte 45 Norte 0 765.7 0.1 49
2020-03-18 05:00:00 2.2 33 Norte 45 Norte 0 765.7 -0.4 31
2020-03-18 04:00:00 1.2 39 Noroeste 57 Noroeste 0 765.5 -1.6 29
2020-03-18 03:00:00 1.8 46 Noroeste 61 Norte 0 765.6 -2.2 38
2020-03-18 02:00:00 1.6 46 Noroeste 57 Norte 0 766.1 -2.3 40
2020-03-18 01:00:00 3.1 31 Norte 46 Norte 0 767.1 -1.3 29
2020-03-18 00:00:00 2.2 29 Norte 38 Norte 0 767.8 -0.3 35
2020-03-17 23:00:00 3.6 22 Norte 38 Norte 0 768.4 0.9 27
2020-03-17 22:00:00 3.3 29 Norte 41 Norte 0 768.4 1.1 18
2020-03-17 21:00:00 3.1 29 Norte 42 Noroeste 0 768.1 1 6
2020-03-17 20:00:00 3.9 36 Norte 45 Norte 0 767.5 0.4 10
2020-03-17 19:00:00 5.2 33 Norte 48 Norte 0 767.3 0 10
2020-03-17 18:00:00 6.6 36 Norte 45 Norte 0 767.1 -0.3 14
2020-03-17 17:00:00 7.1 31 Norte 47 Norte 0 767.1 -0.6 24
2020-03-17 16:00:00 8.4 28 Norte 40 Nordeste 0 767.3 -0.7 16
2020-03-17 15:00:00 8.7 31 Norte 43 Nordeste 0 767.4 -0.8 22
2020-03-17 14:00:00 9.1 24 Nordeste 39 Norte 0 767.7 -0.9 25
2020-03-17 13:00:00 7.6 22 Norte 33 Norte 0 768 -0.5 34
2020-03-17 12:00:00 7.2 21 Norte 31 Nordeste 0 768.2 0.2 38
2020-03-17 11:00:00 8.4 17 Nordeste 32 Nordeste 0 768.6 0.9 8
2020-03-17 10:00:00 8.3 18 Nordeste 32 Nordeste 0 768.5 1 4
2020-03-17 09:00:00 5.9 22 Nordeste 29 Nordeste 0 768 0.8 5
2020-03-17 08:00:00 4.9 22 Nordeste 31 Nordeste 0 767.7 0.8 --
2020-03-17 07:00:00 3.8 22 Nordeste 33 Nordeste 0 767.5 0.5 2
2020-03-17 06:00:00 3 24 Norte 34 Nordeste 0 767.2 0 3
2020-03-17 05:00:00 3 26 Norte 36 Norte 0 766.9 -0.8 4
2020-03-17 04:00:00 3.8 23 Norte 36 Nordeste 0 767 -0.8 4
2020-03-17 03:00:00 3.5 23 Norte 33 Nordeste 0 767.2 -0.9 9
2020-03-17 02:00:00 3.4 25 Norte 39 Norte 0 767.7 -0.6 14
2020-03-17 01:00:00 3 24 Norte 41 Norte 0 767.8 -0.6 20
2020-03-17 00:00:00 2.9 26 Norte 44 Noroeste 0 768.1 -0.3 28
2020-03-16 23:00:00 2.4 29 Norte 48 Norte 0 768.3 0.4 42
2020-03-16 22:00:00 2.2 34 Norte 49 Norte 0 768.4 0.5 46
2020-03-16 21:00:00 2 36 Norte 52 Norte 0 768.4 0.5 45
2020-03-16 20:00:00 1.4 32 Norte 45 Norte 0 767.9 -0.1 60
2020-03-16 19:00:00 1.8 26 Norte 40 Norte 0 767.9 0 97
2020-03-16 18:00:00 2.2 25 Norte 42 Norte 0 767.9 -0.2 97
2020-03-16 17:00:00 4.4 23 Norte 40 Norte 0 768 -0.4 80
2020-03-16 16:00:00 4.6 24 Norte 35 Norte 0 767.9 -0.9 73
2020-03-16 15:00:00 5.7 23 Norte 41 Norte 0 768.1 -1 70
2020-03-16 14:00:00 4.5 23 Norte 36 Norte 0 768.4 -0.8 82
2020-03-16 13:00:00 5 21 Norte 30 Norte 0 768.8 -0.1 68
2020-03-16 12:00:00 4.8 19 Norte 30 Norte 0 769.1 0.8 71
2020-03-16 11:00:00 2.6 12 Norte 28 Norte 0 769.2 1.5 95
2020-03-16 10:00:00 1.8 17 Nordeste 32 Nordeste 0 768.9 1.7 85
2020-03-16 09:00:00 0.6 15 Nordeste 35 Norte 0 768.3 1.3 95
2020-03-16 08:00:00 -0.7 20 Norte 30 Norte 0 767.7 0.9 100
2020-03-16 07:00:00 -1 17 Norte 36 Nordeste 0 767.2 0.3 99
2020-03-16 06:00:00 0.1 21 Norte 36 Norte 0 767 -0.1 100
2020-03-16 05:00:00 0.5 28 Norte 45 Norte 0 766.8 -0.5 100
2020-03-16 04:00:00 0.2 39 Norte 47 Norte 0 766.9 -0.5 100
2020-03-16 03:00:00 1 36 Norte 51 Norte 0 767.1 -0.8 100
2020-03-16 02:00:00 0.4 39 Norte 45 Norte 0 767.3 -0.6 100
2020-03-16 01:00:00 0.8 35 Norte 46 Norte 0 767.4 -0.2 100
2020-03-16 00:00:00 0.5 26 Norte 40 Norte 0 767.9 0.5 99
2020-03-15 23:00:00 -1.1 25 Norte 41 Nordeste 0 767.9 1.2 99
2020-03-15 22:00:00 -0.1 28 Nordeste 45 Norte 0 767.6 1.2 91
2020-03-15 21:00:00 -0.6 29 Norte 46 Nordeste 0 767.4 1.1 100
2020-03-15 20:00:00 -1.2 30 Norte 44 Norte 0 766.7 0.5 99
2020-03-15 19:00:00 0.1 32 Norte 42 Norte 0 766.4 0.5 100
2020-03-15 18:00:00 0.6 17 Norte 32 Norte 0 766.3 0.2 99
2020-03-15 17:00:00 1.3 27 Norte 42 Norte 0 766.2 0.1 100
2020-03-15 16:00:00 1 34 Norte 44 Norte 0 765.9 -0.8 99
2020-03-15 15:00:00 1.3 26 Norte 44 Norte 0 766.1 -0.7 99
2020-03-15 14:00:00 2.8 37 Norte 45 Norte 0 766.1 -0.8 99
2020-03-15 13:00:00 2.1 36 Noroeste 49 Norte 0 766.7 -0.1 98
2020-03-15 12:00:00 2.7 30 Norte 37 Noroeste 0 766.8 0.3 98
2020-03-15 11:00:00 2.3 31 Noroeste 41 Noroeste 0 766.9 0.9 97
2020-03-15 10:00:00 1.6 24 Noroeste 34 Noroeste 0 766.8 1 98
2020-03-15 09:00:00 0 17 Noroeste 25 Noroeste 0 766.5 1.2 95
2020-03-15 08:00:00 -0.7 17 Noroeste 27 Noroeste 0 766 0.7 92
2020-03-15 07:00:00 3.2 14 Oeste 24 Noroeste 0 765.8 0.2 20
2020-03-15 06:00:00 -0.2 19 Noroeste 23 Noroeste 0 765.3 -0.7 77
2020-03-15 05:00:00 2.3 16 Noroeste 19 Noroeste 0 765.3 -1.1 20
2020-03-15 04:00:00 3.6 12 Noroeste 16 Norte 0 765.6 -1.2 14
2020-03-15 03:00:00 3.9 16 Noroeste 19 Noroeste 0 766 -1.2 13
2020-03-15 02:00:00 3.9 11 Noroeste 17 Norte 0 766.4 -0.6 12
2020-03-15 01:00:00 3.9 13 Noroeste 20 Norte 0 766.8 0 9
2020-03-15 00:00:00 3.9 17 Noroeste 27 Noroeste 0 767.2 0.6 7
2020-03-14 23:00:00 2.4 26 Noroeste 44 Noroeste 0 767 0.9 19
2020-03-14 22:00:00 2.9 40 Noroeste 48 Noroeste 0 766.8 1 18
2020-03-14 21:00:00 2.8 42 Noroeste 50 Noroeste 0 766.6 0.8 33
2020-03-14 20:00:00 3.4 46 Noroeste 59 Noroeste 0 766.1 0.4 36
2020-03-14 19:00:00 4.6 52 Noroeste 63 Noroeste 0 765.8 -0.2 31
2020-03-14 18:00:00 6.1 53 Noroeste 67 Noroeste 0 765.8 -0.5 31
2020-03-14 17:00:00 7.7 54 Noroeste 67 Noroeste 0 765.7 -1.4 31
2020-03-14 16:00:00 8.1 53 Noroeste 64 Noroeste 0 766 -2 39
2020-03-14 15:00:00 8.8 48 Noroeste 63 Noroeste 0 766.3 -1.9 37
2020-03-14 14:00:00 9.1 41 Noroeste 57 Noroeste 0 767.1 -1.5 32
2020-03-14 13:00:00 9.7 36 Noroeste 52 Noroeste 0 768 -0.7 26
2020-03-14 12:00:00 8.9 41 Noroeste 51 Noroeste 0 768.2 -0.2 21
2020-03-14 11:00:00 9 27 Noroeste 36 Noroeste 0 768.6 0.4 23
2020-03-14 10:00:00 8.4 18 Noroeste 32 Noroeste 0 768.7 0.8 23
2020-03-14 09:00:00 6.6 27 Noroeste 34 Noroeste 0 768.4 0.5 21
2020-03-14 08:00:00 5.1 30 Noroeste 34 Noroeste 0 768.2 0.3 22
2020-03-14 07:00:00 3.9 31 Noroeste 33 Noroeste 0 767.9 -0.3 24
2020-03-14 06:00:00 4 27 Noroeste 31 Noroeste 0 767.9 -0.6 24
2020-03-14 05:00:00 4.3 28 Noroeste 30 Noroeste 0 767.9 -1.2 23
2020-03-14 04:00:00 4.4 27 Noroeste 31 Noroeste 0 768.2 -1.3 23
2020-03-14 03:00:00 4.4 28 Noroeste 31 Noroeste 0 768.5 -1.4 23
2020-03-14 02:00:00 4.6 25 Noroeste 31 Noroeste 0 769.1 -1 22
2020-03-14 01:00:00 5 28 Noroeste 34 Noroeste 0 769.5 -0.6 22
2020-03-14 00:00:00 5.3 32 Noroeste 36 Noroeste 0 769.9 0.2 22
2020-03-13 23:00:00 5.4 34 Noroeste 38 Noroeste 0 770.1 0.8 22
2020-03-13 22:00:00 5.5 35 Noroeste 41 Noroeste 0 770.1 0.7 21
2020-03-13 21:00:00 5.4 36 Noroeste 40 Noroeste 0 769.7 0.2 20
2020-03-13 20:00:00 5.8 38 Noroeste 41 Noroeste 0 769.3 -0.5 23
2020-03-13 19:00:00 6.2 30 Noroeste 36 Noroeste 0 769.4 -0.7 25
2020-03-13 18:00:00 8 28 Noroeste 36 Noroeste 0 769.5 -0.9 22
2020-03-13 17:00:00 9.6 23 Noroeste 31 Noroeste 0 769.8 -1 20
2020-03-13 16:00:00 10.5 14 Norte 25 Norte 0 770.1 -1.3 19
2020-03-13 15:00:00 11.1 10 Norte 22 Sudeste 0 770.4 -1.3 23
2020-03-13 14:00:00 11.8 5 Este 19 Sudeste 0 770.8 -0.9 22
2020-03-13 13:00:00 12.2 9 Sudeste 21 Sudeste 0 771.4 -- 23
2020-03-13 12:00:00 11.9 10 Sudeste 26 Sudeste 0 771.7 -- 17
2020-03-13 11:00:00 11.1 14 Sudeste 23 Sudeste 0 771.7 -- 17
2020-03-13 10:00:00 10.6 10 Sudeste 19 Sudeste 0 -- -- 17
2020-03-13 09:00:00 9.1 5 Sudoeste 13 Sudoeste 0 -- -- 19
2020-03-13 08:00:00 6.6 8 Sudoeste 9 Sudoeste 0 -- -- 26
2020-03-13 07:00:00 5.7 5 Este 8 Sudeste 0 -- -- 18
2020-03-13 06:00:00 5.6 6 Sudeste 8 Sudeste 0 -- -- 20
2020-03-13 05:00:00 5.4 7 Este 10 Este 0 -- -- 19
2020-03-13 04:00:00 5.3 10 Este 12 Este 0 -- -- 20
2020-03-13 03:00:00 5.5 10 Este 12 Este 0 -- -- 19
2020-03-13 02:00:00 5.5 10 Este 13 Este 0 -- -- 20
2020-03-13 01:00:00 6 11 Este 12 Este 0 -- -- 19
2020-03-13 00:00:00 6.1 10 Este 12 Este 0 -- -- 19
2020-03-12 23:00:00 6.3 12 Este 15 Este 0 -- -- 18
2020-03-12 22:00:00 6.7 11 Este 15 Nordeste 0 -- -- 17
2020-03-12 21:00:00 6.2 13 Nordeste 17 Norte 0 -- -- 19
2020-03-12 20:00:00 6.4 11 Norte 13 Norte 0 -- -- 23
2020-03-12 19:00:00 7.9 13 Norte 16 Norte 0 -- -- 18
2020-03-12 18:00:00 10.7 6 Sudeste 14 Sudeste 0 -- -- 20
2020-03-12 17:00:00 11.7 5 Este 30 Nordeste 0 771.1 -0.4 17
2020-03-12 16:00:00 12.6 7 Este 26 Sudeste 0 771 -1 19
2020-03-12 15:00:00 12.1 15 Sudeste 26 Sudeste 0 771.2 -1.2 20
2020-03-12 14:00:00 11.6 12 Sudeste 32 Este 0 771.5 -0.8 25
2020-03-12 13:00:00 12 16 Sudeste 27 Sudeste 0 772 -0.1 22
2020-03-12 12:00:00 11.3 12 Sudeste 28 Sudeste 0 772.4 0.9 18
2020-03-12 11:00:00 11.1 15 Sudeste 31 Sudeste 0 772.3 1.3 13
2020-03-12 10:00:00 10.5 18 Sudeste 30 Sudeste 0 772.1 1.5 13
2020-03-12 09:00:00 9.3 18 Sudeste 25 Sudeste 0 771.5 1.1 16
2020-03-12 08:00:00 7.3 23 Sur 31 Sur 0 771 1.3 18
2020-03-12 07:00:00 6.2 29 Sur 32 Sur 0 770.6 0.6 19
2020-03-12 06:00:00 5.8 24 Sur 41 Sur 0 770.4 0 19
2020-03-12 05:00:00 5.7 38 Sur 44 Sur 0 769.7 -1.4 20
2020-03-12 04:00:00 6 39 Sur 44 Sur 0 770 -1.3 19
2020-03-12 03:00:00 5.9 36 Sur 40 Sur 0 770.4 -1.2 19
2020-03-12 02:00:00 5.8 33 Sur 39 Sur 0 771.1 -0.5 18
2020-03-12 01:00:00 6.2 35 Sur 39 Sur 0 771.3 -0.3 15
2020-03-12 00:00:00 6.3 27 Sur 37 Sur 0 771.6 0.3 15
2020-03-11 23:00:00 6.3 32 Sur 36 Sur 0 771.6 0.6 14
2020-03-11 22:00:00 6.1 31 Sur 34 Sur 0 771.6 0.7 13
2020-03-11 21:00:00 6 28 Sur 30 Sur 0 771.3 0.5 14
2020-03-11 20:00:00 6.3 14 Sudoeste 15 Sudoeste 0 771 0.2 19
2020-03-11 19:00:00 8.8 6 Oeste 13 Oeste 0 770.9 0.1 16
2020-03-11 18:00:00 10.4 8 Oeste 19 Sudoeste 0 770.8 -0.2 13
2020-03-11 17:00:00 10.2 9 Sudoeste 37 Sur 0 770.8 -0.5 18
2020-03-11 16:00:00 11 20 Sur 37 Sur 0 770.8 -0.9 17
2020-03-11 15:00:00 11.9 23 Sur 44 Sur 0 771 -0.9 15
2020-03-11 14:00:00 10.8 23 Sur 43 Sudoeste 0 771.3 -0.5 6
2020-03-11 13:00:00 10.8 26 Sur 44 Sudoeste 0 771.7 0.1 16
2020-03-11 12:00:00 11.7 28 Sur 52 Sur 0 771.9 0.7 13
2020-03-11 11:00:00 11 34 Sur 55 Sur 0 771.8 1.1 12
2020-03-11 10:00:00 11.3 36 Sur 52 Sur 0 771.6 0.9 10
2020-03-11 09:00:00 8.4 35 Sudoeste 50 Sur 0 771.2 0.7 12
2020-03-11 08:00:00 7.5 36 Sudoeste 49 Sur 0 770.7 0.1 11
2020-03-11 07:00:00 6.6 32 Sudoeste 40 Sudoeste 0 770.7 0 12
2020-03-11 06:00:00 6.4 32 Sudoeste 39 Sudoeste 0 770.5 -0.7 12
2020-03-11 05:00:00 6.2 30 Sudoeste 36 Sudoeste 0 770.6 -1 12
2020-03-11 04:00:00 6.5 30 Sudoeste 36 Sudoeste 0 770.7 -1.2 4
2020-03-11 03:00:00 6.5 29 Sudoeste 31 Sur 0 771.2 -1 8
2020-03-11 02:00:00 7 28 Sur 34 Sur 0 771.6 -0.9 6
2020-03-11 01:00:00 7.3 30 Sur 32 Sur 0 771.9 -0.4 2
2020-03-11 00:00:00 7.4 28 Sur 31 Sur 0 772.2 0.1 --
2020-03-10 23:00:00 7.6 25 Sur 30 Sur 0 772.5 0.8 --
2020-03-10 22:00:00 7.7 18 Sudeste 23 Sudeste 0 772.3 0.6 --
2020-03-10 21:00:00 7.5 12 Sudeste 15 Sudeste 0 772.1 0.4 --
2020-03-10 20:00:00 7.8 10 Sudeste 15 Sudeste 0 771.7 -0.1 --
2020-03-10 19:00:00 8.7 11 Sudeste 17 Sudeste 0 771.7 -0.4 --
2020-03-10 18:00:00 10.5 8 Sudeste 13 Sudeste 0 771.7 -0.8 --
2020-03-10 17:00:00 11.7 9 Sudeste 23 Sudeste 0 771.8 -1.2 18
2020-03-10 16:00:00 13.3 14 Sudeste 33 Sudeste 0 772.1 -1.4 8
2020-03-10 15:00:00 13.6 23 Sudeste 36 Sudeste 0 772.5 -1.5 6
2020-03-10 14:00:00 13.2 24 Sudeste 40 Sudeste 0 773 -1.1 5
2020-03-10 13:00:00 13.4 27 Sudeste 38 Sudeste 0 773.5 -0.4 9
2020-03-10 12:00:00 13 25 Sudeste 37 Sudeste 0 774 0.5 13
2020-03-10 11:00:00 12.4 28 Sudeste 47 Sur 0 774.1 1.4 10
2020-03-10 10:00:00 11.7 35 Sudeste 46 Sudeste 0 773.9 1.8 12
2020-03-10 09:00:00 10.4 32 Sur 45 Sur 0 773.5 1.7 11
2020-03-10 08:00:00 8.1 36 Sur 43 Sur 0 772.7 1 9
2020-03-10 07:00:00 5.2 41 Sur 52 Sur 0 772.1 0.2 25
2020-03-10 06:00:00 5.7 37 Sur 44 Sur 0 771.8 -0.4 22
2020-03-10 05:00:00 6.3 38 Sur 52 Sur 0 771.7 -1 22
2020-03-10 04:00:00 5.7 37 Sur 55 Sur 0 771.9 -1 22
2020-03-10 03:00:00 6.2 45 Sur 56 Sur 0 772.2 -0.9 20
2020-03-10 02:00:00 5.2 46 Sur 53 Sur 0 772.7 -0.4 29
2020-03-10 01:00:00 5.2 44 Sur 54 Sur 0 772.9 -0.3 30
2020-03-10 00:00:00 4.7 49 Sur 55 Sur 0 773.1 -0.1 30
2020-03-09 23:00:00 5 51 Sur 59 Sur 0 773.1 -0.1 30
2020-03-09 22:00:00 4.9 46 Sudeste 54 Sudeste 0 773.2 0.2 31
2020-03-09 21:00:00 4.9 41 Sur 47 Sudeste 0 773.2 0.4 31
2020-03-09 20:00:00 5 35 Sudeste 44 Sudeste 0 773.2 0.1 31
2020-03-09 19:00:00 5.6 37 Sudeste 45 Sudeste 0 773 -0.2 29
2020-03-09 18:00:00 6.8 37 Sudeste 47 Sudeste 0 772.8 -1 26
2020-03-09 17:00:00 8.2 31 Sudeste 48 Sudeste 0 773.1 -1.3 27
2020-03-09 16:00:00 9.6 33 Sudeste 44 Sudeste 0 773.2 -1.8 24
2020-03-09 15:00:00 10.7 27 Sudeste 41 Sudeste 0 773.8 -1.3 20
2020-03-09 14:00:00 11.5 27 Sudeste 37 Sudeste 0 774.4 -0.8 26
2020-03-09 13:00:00 11.2 22 Sudeste 42 Sudeste 0 775 0.3 24
2020-03-09 12:00:00 11 28 Sudeste 45 Sur 0 775.1 0.8 26
2020-03-09 11:00:00 9.8 31 Sur 47 Sur 0 775.2 1.6 23
2020-03-09 10:00:00 9.2 34 Sur 49 Sur 0 774.7 1.5 26
2020-03-09 09:00:00 8.2 30 Sudeste 42 Sudeste 0 774.3 1.3 27
2020-03-09 08:00:00 6 37 Sudeste 49 Sur 0 773.6 0.9 31
2020-03-09 07:00:00 5.3 39 Sudeste 52 Sudeste 0 773.2 0.9 29
2020-03-09 06:00:00 5.8 43 Sudeste 50 Sudeste 0 773 0.6 24
2020-03-09 05:00:00 5.9 44 Sudeste 55 Sudeste 0 772.7 -0.4 24
2020-03-09 04:00:00 6.1 47 Sudeste 63 Sudeste 0 772.3 -1.2 24
2020-03-09 03:00:00 6.7 55 Sudeste 64 Sudeste 0 772.4 -1.1 23
2020-03-09 02:00:00 6.6 49 Sudeste 58 Sudeste 0 773.1 -0.4 23
2020-03-09 01:00:00 6.8 51 Sudeste 65 Sudeste 0 773.5 0.2 22
2020-03-09 00:00:00 6.8 59 Sudeste 67 Sudeste 0 773.5 0.1 22
2020-03-08 23:00:00 6.8 57 Sudeste 67 Sudeste 0 773.5 0.7 21
2020-03-08 22:00:00 6.9 55 Sudeste 67 Sudeste 0 773.3 0.9 23
2020-03-08 21:00:00 6.6 41 Sudeste 52 Sudeste 0 773.4 1 22
2020-03-08 20:00:00 6.6 42 Sudeste 54 Sudeste 0 772.8 0.2 24
2020-03-08 19:00:00 7 33 Sudeste 44 Sudeste 0 772.4 -0.2 27
2020-03-08 18:00:00 9.9 31 Sudeste 39 Sudeste 0 772.4 -0.4 16
2020-03-08 17:00:00 11.2 17 Sudeste 23 Sudeste 0 772.6 -0.4 21
2020-03-08 16:00:00 12.5 14 Sudeste 30 Sudeste 0 772.6 -0.8 20
2020-03-08 15:00:00 11.7 21 Sudeste 31 Sudeste 0 772.8 -0.5 15
2020-03-08 14:00:00 11.4 19 Sudeste 38 Sudeste 0 773 0.2 30
2020-03-08 13:00:00 11.2 24 Sudeste 38 Sudeste 0 773.4 1 30
2020-03-08 12:00:00 10.6 31 Sudeste 51 Sudeste 0 773.3 1.6 24
2020-03-08 11:00:00 10.3 42 Sudeste 57 Sudeste 0 772.8 2.1 22
2020-03-08 10:00:00 10.2 43 Sudeste 54 Sudeste 0 772.4 2.2 21
2020-03-08 09:00:00 9 42 Sudeste 60 Sudeste 0 771.7 2 21
2020-03-08 08:00:00 7.4 53 Sudeste 60 Sur 0 770.7 1.1 20
2020-03-08 07:00:00 6.8 51 Sur 60 Sur 0 770.2 0.5 23
2020-03-08 06:00:00 6.2 52 Sur 58 Sur 0 769.7 -0.2 24
2020-03-08 05:00:00 6.5 48 Sur 58 Sur 0 769.6 -0.7 23
2020-03-08 04:00:00 8.2 47 Sur 62 Sur 0 769.7 -1.1 21
2020-03-08 03:00:00 8.4 53 Sur 64 Sur 0 769.9 -1 10
2020-03-08 02:00:00 7.8 47 Sur 57 Sur 0 770.3 -1.1 15
2020-03-08 01:00:00 7.9 36 Sur 45 Sur 0 770.8 -0.4 13
2020-03-08 00:00:00 7.6 41 Sur 45 Sur 0 770.9 -0.1 12
2020-03-07 23:00:00 8.1 30 Sur 39 Sur 0 771.4 1 15
2020-03-07 22:00:00 8.1 27 Sur 33 Sur 0 771.2 1.3 7
2020-03-07 21:00:00 8.3 22 Sur 35 Sur 0 771 1.3 9
2020-03-07 20:00:00 8.1 28 Sur 33 Sur 0 770.4 0.8 7
2020-03-07 19:00:00 8.4 25 Sur 30 Sur 0 769.9 0.3 8
2020-03-07 18:00:00 9.4 24 Sur 30 Sudeste 0 769.7 0 4
2020-03-07 17:00:00 10.4 24 Sudeste 32 Sudeste 0 769.6 -0.6 7
2020-03-07 16:00:00 10.9 27 Sudeste 41 Sudeste 0 769.6 -1.1 7
2020-03-07 15:00:00 10.7 32 Sudeste 43 Sudeste 0 769.7 -1.7 11
2020-03-07 14:00:00 11.5 30 Sudeste 40 Sudeste 0 770.2 -1.3 12
2020-03-07 13:00:00 11.9 29 Sudeste 36 Sudeste 0 770.7 -0.9 11
2020-03-07 12:00:00 11.3 22 Sudeste 30 Sudeste 0 771.4 0.1 11
2020-03-07 11:00:00 11.1 18 Sudeste 26 Sudeste 0 771.5 0.8 11
2020-03-07 10:00:00 11.4 18 Sudeste 27 Sudeste 0 771.6 1.2 9
2020-03-07 09:00:00 10.8 15 Sudeste 24 Sudeste 0 771.3 1.4 7
2020-03-07 08:00:00 9 11 Sudeste 22 Este 0 770.7 0.8 5
2020-03-07 07:00:00 7.1 15 Sudeste 19 Este 0 770.4 0.3 5
2020-03-07 06:00:00 7.1 13 Sudeste 21 Este 0 769.9 -0.7 --
2020-03-07 05:00:00 7.3 14 Sudeste 28 Sudeste 0 769.9 -1.1 --
2020-03-07 04:00:00 7.3 18 Sudeste 33 Sudeste 0 770.1 -1.2 --
2020-03-07 03:00:00 7.5 26 Sudeste 34 Sudeste 0 770.6 -1 --
2020-03-07 02:00:00 7 19 Sudeste 32 Sudeste 0 771 -1.1 --
2020-03-07 01:00:00 6.6 28 Sudeste 37 Sudeste 0 771.3 -0.8 --
2020-03-07 00:00:00 5.9 32 Sudeste 37 Sudeste 0 771.6 -0.2 --
2020-03-06 23:00:00 5.8 27 Sudeste 41 Este 0 772.1 0.8 --
2020-03-06 22:00:00 6.6 27 Este 41 Este 0 772.1 0.8 --
2020-03-06 21:00:00 6.3 28 Norte 37 Norte 0 771.8 0.4 --
2020-03-06 20:00:00 6.3 25 Norte 33 Norte 0 771.3 -0.3 3
2020-03-06 19:00:00 8.1 24 Norte 36 Norte 0 771.3 -0.4 4
2020-03-06 18:00:00 9 26 Norte 35 Norte 0 771.4 -0.5 4
2020-03-06 17:00:00 10.2 24 Norte 33 Norte 0 771.6 -0.6 6
2020-03-06 16:00:00 11.6 25 Norte 35 Norte 0 771.7 -1.2 5
2020-03-06 15:00:00 12.2 21 Norte 35 Nordeste 0 771.9 -1.6 8
2020-03-06 14:00:00 11.9 20 Norte 31 Norte 0 772.2 -1.3 13
2020-03-06 13:00:00 12.6 14 Norte 24 Norte 0 772.9 -0.5 33
2020-03-06 12:00:00 13 10 Este 31 Este 0 773.5 0.5 20
2020-03-06 11:00:00 12.3 21 Este 34 Este 0 773.5 1.2 6
2020-03-06 10:00:00 10.5 20 Este 32 Este 0 773.4 1.3 --
2020-03-06 09:00:00 9.2 17 Este 28 Nordeste 0 773 1 --
2020-03-06 08:00:00 7.7 19 Norte 29 Norte 0 772.3 0.1 22
2020-03-06 07:00:00 7.7 21 Norte 25 Norte 0 772.1 -0.3 5
2020-03-06 06:00:00 6.7 19 Norte 25 Norte 0 772 -0.9 26
2020-03-06 05:00:00 6.7 19 Norte 28 Norte 0 772.2 -1.1 13
2020-03-06 04:00:00 7.5 24 Norte 34 Norte 0 772.4 -1.3 10
2020-03-06 03:00:00 7.2 27 Norte 36 Norte 0 772.9 -1 18
2020-03-06 02:00:00 6.2 18 Norte 30 Norte 0 773.3 -1.2 35
2020-03-06 01:00:00 6.8 24 Norte 36 Norte 0 773.7 -1 33
2020-03-06 00:00:00 7 21 Norte 27 Norte 0 773.9 -0.5 33
2020-03-05 23:00:00 8.6 23 Norte 31 Norte 0 774.5 0.3 27
2020-03-05 22:00:00 8.3 20 Norte 32 Norte 0 774.7 0.9 29
2020-03-05 21:00:00 8 20 Norte 33 Norte 0 774.4 0.8 29
2020-03-05 20:00:00 8 22 Norte 35 Norte 0 774.2 0.5 29
2020-03-05 19:00:00 9.6 23 Noroeste 31 Noroeste 0 773.8 0.1 28
2020-03-05 18:00:00 11.8 23 Noroeste 33 Noroeste 0 773.6 -0.4 22
2020-03-05 17:00:00 13.2 22 Norte 30 Norte 0 773.7 -0.8 22
2020-03-05 16:00:00 14.1 14 Norte 27 Norte 0 773.7 -1.2 25
2020-03-05 15:00:00 15.2 11 Norte 24 Norte 0 774 -1.2 27
2020-03-05 14:00:00 15.5 13 Norte 26 Norte 0 774.5 -0.8 28
2020-03-05 13:00:00 15.3 14 Norte 26 Norte 0 774.9 -0.4 20
2020-03-05 12:00:00 14.3 16 Norte 23 Norte 0 775.2 0.3 25
2020-03-05 11:00:00 14.5 7 Norte 24 Noroeste 0 775.3 0.9 23
2020-03-05 10:00:00 13.1 13 Noroeste 19 Noroeste 0 775.3 1.4 21
2020-03-05 09:00:00 11.5 9 Norte 24 Noroeste 0 774.9 1.1 22
2020-03-05 08:00:00 9.8 16 Norte 19 Norte 0 774.4 0.6 24
2020-03-05 07:00:00 10 12 Norte 15 Norte 0 773.9 -0.2 23
2020-03-05 06:00:00 10.2 8 Noroeste 18 Noroeste 0 773.8 -0.7 23
2020-03-05 05:00:00 10 15 Noroeste 18 Noroeste 0 773.8 -1 23
2020-03-05 04:00:00 10.4 10 Noroeste 13 Noroeste 0 774.1 -1.2 23
2020-03-05 03:00:00 10.2 11 Noroeste 17 Noroeste 0 774.5 -1.1 24
2020-03-05 02:00:00 10.6 9 Noroeste 13 Noroeste 0 774.8 -0.9 24
2020-03-05 01:00:00 10.8 12 Noroeste 16 Noroeste 0 775.3 -0.4 25
2020-03-05 00:00:00 11.3 8 Noroeste 12 Noroeste 0 775.6 0 26
2020-03-04 23:00:00 11.5 13 Noroeste 17 Noroeste 0 775.7 0.3 25
2020-03-04 22:00:00 11.6 8 Sudoeste 13 Sur 0 775.7 0.6 29
2020-03-04 21:00:00 11.5 7 Sur 11 Noroeste 0 775.6 0.8 27
2020-03-04 20:00:00 10.7 12 Noroeste 22 Noroeste 0 775.4 0.6 24
2020-03-04 19:00:00 11.1 23 Noroeste 30 Noroeste 0 775.1 0.3 31
2020-03-04 18:00:00 13.7 22 Noroeste 30 Norte 0 774.8 -0.3 29
2020-03-04 17:00:00 14.6 23 Norte 31 Norte 0 774.8 -0.6 30
2020-03-04 16:00:00 16.4 13 Norte 35 Nordeste 0 774.8 -1.1 25
2020-03-04 15:00:00 17.3 9 Nordeste 18 Nordeste 0 775.1 -1.3 25
2020-03-04 14:00:00 17.7 9 Norte 38 Nordeste 0 775.4 -1.1 25
2020-03-04 13:00:00 18.1 8 Sur 29 Sudeste 0 775.9 -0.5 26
2020-03-04 12:00:00 16.8 17 Sur 28 Sur 0 776.4 0.3 22
2020-03-04 11:00:00 16.1 18 Sur 30 Sur 0 776.5 0.8 22
2020-03-04 10:00:00 15.2 22 Sur 28 Sur 0 776.4 1.1 29
2020-03-04 09:00:00 14.7 23 Sudeste 28 Sudeste 0 776.1 0.9 17
2020-03-04 08:00:00 12.5 21 Sudeste 23 Sudeste 0 775.7 0.6 19
2020-03-04 07:00:00 11.5 19 Sudeste 22 Sudeste 0 775.3 0 20
2020-03-04 06:00:00 11.8 14 Sudeste 19 Sudeste 0 775.2 -0.6 20
2020-03-04 05:00:00 12.2 9 Sudeste 14 Sudeste 0 775.1 -1.2 20
2020-03-04 04:00:00 11.7 13 Sudeste 19 Sudeste 0 775.3 -1.4 20
2020-03-04 03:00:00 11.7 19 Sudeste 21 Sudeste 0 775.8 -1.3 23
2020-03-04 02:00:00 11.5 18 Sudeste 23 Sudeste 0 776.3 -0.9 25
2020-03-04 01:00:00 11.5 18 Sudeste 22 Sudeste 0 776.7 -0.2 24
2020-03-04 00:00:00 11.2 12 Sudeste 14 Sudeste 0 777.1 0.5 33
2020-03-03 23:00:00 11.7 0 Calma 10 Sudeste 0 777.2 0.8 32
2020-03-03 22:00:00 11.1 10 Sur 14 Sudeste 0 776.9 0.7 37
2020-03-03 21:00:00 11.1 14 Sudeste 20 Sur 0 776.6 0.6 38
2020-03-03 20:00:00 11.3 16 Sudeste 19 Sudeste 0 776.4 0.5 32
2020-03-03 19:00:00 12.5 12 Sur 14 Sudeste 0 776.2 0.4 27
2020-03-03 18:00:00 15.8 5 Sudeste 13 Sudeste 0 776 -0.1 20
2020-03-03 17:00:00 15.7 11 Sudeste 24 Sudeste 0 775.9 -0.4 20
2020-03-03 16:00:00 16.5 15 Sudeste 23 Sudeste 0 775.8 -0.8 22
2020-03-03 15:00:00 16.9 19 Sudeste 29 Sudeste 0 776.1 -1 24
2020-03-03 14:00:00 16.8 23 Sudeste 40 Sudeste 0 776.3 -0.7 24
2020-03-03 13:00:00 16.6 34 Sudeste 45 Sudeste 0 776.6 -0.3 23
2020-03-03 12:00:00 16.4 33 Sudeste 43 Sudeste 0 777.1 0.8 18
2020-03-03 11:00:00 16.3 33 Sudeste 42 Sudeste 0 777 1.2 19
2020-03-03 10:00:00 15.1 32 Sudeste 41 Sudeste 0 776.9 1.5 21
2020-03-03 09:00:00 13.7 33 Sudeste 38 Sudeste 0 776.3 1.3 22
2020-03-03 08:00:00 11.8 30 Sudeste 36 Sudeste 0 775.8 0.9 23
2020-03-03 07:00:00 11.1 29 Sudeste 36 Sudeste 0 775.4 0.4 23
2020-03-03 06:00:00 10.5 24 Sudeste 31 Sudeste 0 775 -0.3 22
2020-03-03 05:00:00 10.1 21 Sudeste 33 Sudeste 0 774.9 -0.6 6
2020-03-03 04:00:00 10.4 25 Sudeste 32 Sudeste 0 775 -0.8 2
2020-03-03 03:00:00 11 17 Sudeste 25 Sur 0 775.3 -0.6 6
2020-03-03 02:00:00 11.1 23 Sur 27 Sudeste 0 775.5 -0.4 6
2020-03-03 01:00:00 11.5 19 Sudeste 25 Sudeste 0 775.8 0 2
2020-03-03 00:00:00 11.4 20 Sudeste 26 Sudeste 0 775.9 0.4 --